sensor_id;sensor_type;location;lat;lon;timestamp;temperature;humidity
43858;DHT22;29507;51.284;5.758;2023-06-24T00:01:14;17.90;99.90
43858;DHT22;29507;51.284;5.758;2023-06-24T00:03:40;18.00;99.90
43858;DHT22;29507;51.284;5.758;2023-06-24T00:06:06;17.90;99.90
43858;DHT22;29507;51.284;5.758;2023-06-24T00:08:32;17.90;99.90
43858;DHT22;29507;51.284;5.758;2023-06-24T00:11:01;17.80;99.90
43858;DHT22;29507;51.284;5.758;2023-06-24T00:13:27;17.80;99.90
43858;DHT22;29507;51.284;5.758;2023-06-24T00:15:54;17.80;99.90
43858;DHT22;29507;51.284;5.758;2023-06-24T00:18:20;17.70;99.90
43858;DHT22;29507;51.284;5.758;2023-06-24T00:20:50;17.70;99.90
43858;DHT22;29507;51.284;5.758;2023-06-24T00:23:17;17.60;99.90
43858;DHT22;29507;51.284;5.758;2023-06-24T00:25:50;17.60;99.90
43858;DHT22;29507;51.284;5.758;2023-06-24T00:28:16;17.60;99.90
43858;DHT22;29507;51.284;5.758;2023-06-24T00:30:41;17.50;99.90
43858;DHT22;29507;51.284;5.758;2023-06-24T00:33:07;17.50;99.90
43858;DHT22;29507;51.284;5.758;2023-06-24T00:35:36;17.50;99.90
43858;DHT22;29507;51.284;5.758;2023-06-24T00:38:02;17.50;99.90
43858;DHT22;29507;51.284;5.758;2023-06-24T00:40:28;17.50;99.90
43858;DHT22;29507;51.284;5.758;2023-06-24T00:42:54;17.50;99.90
43858;DHT22;29507;51.284;5.758;2023-06-24T00:45:21;17.60;99.90
43858;DHT22;29507;51.284;5.758;2023-06-24T00:47:47;17.60;99.90
43858;DHT22;29507;51.284;5.758;2023-06-24T00:50:14;17.60;99.90
43858;DHT22;29507;51.284;5.758;2023-06-24T00:52:40;17.50;99.90
43858;DHT22;29507;51.284;5.758;2023-06-24T00:55:10;17.40;99.90
43858;DHT22;29507;51.284;5.758;2023-06-24T00:57:37;17.40;99.90
43858;DHT22;29507;51.284;5.758;2023-06-24T01:00:03;17.30;99.90
43858;DHT22;29507;51.284;5.758;2023-06-24T01:02:34;17.20;99.90
43858;DHT22;29507;51.284;5.758;2023-06-24T01:05:03;17.20;99.90
43858;DHT22;29507;51.284;5.758;2023-06-24T01:07:30;17.10;99.90
43858;DHT22;29507;51.284;5.758;2023-06-24T01:09:57;17.00;99.90
43858;DHT22;29507;51.284;5.758;2023-06-24T01:12:23;16.90;99.90
43858;DHT22;29507;51.284;5.758;2023-06-24T01:14:48;16.90;99.90
43858;DHT22;29507;51.284;5.758;2023-06-24T01:17:25;16.90;99.90
43858;DHT22;29507;51.284;5.758;2023-06-24T01:19:56;16.90;99.90
43858;DHT22;29507;51.284;5.758;2023-06-24T01:25:40;16.90;99.90
43858;DHT22;29507;51.284;5.758;2023-06-24T01:31:34;17.00;99.90
43858;DHT22;29507;51.284;5.758;2023-06-24T01:34:42;17.10;99.90
43858;DHT22;29507;51.284;5.758;2023-06-24T01:39:49;17.10;99.90
43858;DHT22;29507;51.284;5.758;2023-06-24T01:42:17;17.10;99.90
43858;DHT22;29507;51.284;5.758;2023-06-24T01:44:45;17.00;99.90
43858;DHT22;29507;51.284;5.758;2023-06-24T01:47:16;17.00;99.90
43858;DHT22;29507;51.284;5.758;2023-06-24T01:49:44;17.00;99.90
43858;DHT22;29507;51.284;5.758;2023-06-24T01:52:11;16.90;99.90
43858;DHT22;29507;51.284;5.758;2023-06-24T01:54:39;16.90;99.90
43858;DHT22;29507;51.284;5.758;2023-06-24T01:57:07;16.90;99.90
43858;DHT22;29507;51.284;5.758;2023-06-24T01:59:35;16.90;99.90
43858;DHT22;29507;51.284;5.758;2023-06-24T02:02:03;16.90;99.90
43858;DHT22;29507;51.284;5.758;2023-06-24T02:04:30;16.90;99.90
43858;DHT22;29507;51.284;5.758;2023-06-24T02:07:00;16.80;99.90
43858;DHT22;29507;51.284;5.758;2023-06-24T02:09:28;16.80;99.90
43858;DHT22;29507;51.284;5.758;2023-06-24T02:11:56;16.80;99.90
43858;DHT22;29507;51.284;5.758;2023-06-24T02:14:22;16.70;99.90
43858;DHT22;29507;51.284;5.758;2023-06-24T02:16:49;16.70;99.90
43858;DHT22;29507;51.284;5.758;2023-06-24T02:19:16;16.60;99.90
43858;DHT22;29507;51.284;5.758;2023-06-24T02:21:44;16.60;99.90
43858;DHT22;29507;51.284;5.758;2023-06-24T02:24:11;16.60;99.90
43858;DHT22;29507;51.284;5.758;2023-06-24T02:26:37;16.60;99.90
43858;DHT22;29507;51.284;5.758;2023-06-24T02:29:08;16.50;99.90
43858;DHT22;29507;51.284;5.758;2023-06-24T02:31:36;16.50;99.90
43858;DHT22;29507;51.284;5.758;2023-06-24T02:34:01;16.40;99.90
43858;DHT22;29507;51.284;5.758;2023-06-24T02:36:27;16.40;99.90
43858;DHT22;29507;51.284;5.758;2023-06-24T02:38:53;16.30;99.90
43858;DHT22;29507;51.284;5.758;2023-06-24T02:41:18;16.30;99.90
43858;DHT22;29507;51.284;5.758;2023-06-24T02:43:44;16.30;99.90
43858;DHT22;29507;51.284;5.758;2023-06-24T02:46:10;16.20;99.90
43858;DHT22;29507;51.284;5.758;2023-06-24T02:48:37;16.20;99.90
43858;DHT22;29507;51.284;5.758;2023-06-24T02:51:05;16.20;99.90
43858;DHT22;29507;51.284;5.758;2023-06-24T02:53:32;16.10;99.90
43858;DHT22;29507;51.284;5.758;2023-06-24T02:55:59;16.10;99.90
43858;DHT22;29507;51.284;5.758;2023-06-24T02:58:24;16.10;99.90
43858;DHT22;29507;51.284;5.758;2023-06-24T03:01:01;16.10;99.90
43858;DHT22;29507;51.284;5.758;2023-06-24T03:03:28;16.10;99.90
43858;DHT22;29507;51.284;5.758;2023-06-24T03:05:55;16.00;99.90
43858;DHT22;29507;51.284;5.758;2023-06-24T03:08:24;16.00;99.90
43858;DHT22;29507;51.284;5.758;2023-06-24T03:10:51;16.00;99.90
43858;DHT22;29507;51.284;5.758;2023-06-24T03:13:17;15.90;99.90
43858;DHT22;29507;51.284;5.758;2023-06-24T03:15:42;15.90;99.90
43858;DHT22;29507;51.284;5.758;2023-06-24T03:18:08;15.90;99.90
43858;DHT22;29507;51.284;5.758;2023-06-24T03:20:33;15.80;99.90
43858;DHT22;29507;51.284;5.758;2023-06-24T03:23:05;15.80;99.90
43858;DHT22;29507;51.284;5.758;2023-06-24T03:25:32;15.70;99.90
43858;DHT22;29507;51.284;5.758;2023-06-24T03:27:58;15.70;99.90
43858;DHT22;29507;51.284;5.758;2023-06-24T03:30:26;15.60;99.90
43858;DHT22;29507;51.284;5.758;2023-06-24T03:32:52;15.70;99.90
43858;DHT22;29507;51.284;5.758;2023-06-24T03:35:17;15.60;99.90
43858;DHT22;29507;51.284;5.758;2023-06-24T03:37:43;15.70;99.90
43858;DHT22;29507;51.284;5.758;2023-06-24T03:40:09;15.60;99.90
43858;DHT22;29507;51.284;5.758;2023-06-24T03:42:35;15.60;99.90
43858;DHT22;29507;51.284;5.758;2023-06-24T03:45:02;15.70;99.90
43858;DHT22;29507;51.284;5.758;2023-06-24T03:47:28;15.60;99.90
43858;DHT22;29507;51.284;5.758;2023-06-24T03:49:54;15.60;99.90
43858;DHT22;29507;51.284;5.758;2023-06-24T03:52:20;15.60;99.90
43858;DHT22;29507;51.284;5.758;2023-06-24T03:54:45;15.50;99.90
43858;DHT22;29507;51.284;5.758;2023-06-24T03:57:12;15.60;99.90
43858;DHT22;29507;51.284;5.758;2023-06-24T03:59:38;15.60;99.90
43858;DHT22;29507;51.284;5.758;2023-06-24T04:02:05;15.60;99.90
43858;DHT22;29507;51.284;5.758;2023-06-24T04:04:34;15.70;99.90
43858;DHT22;29507;51.284;5.758;2023-06-24T04:06:59;15.70;99.90
43858;DHT22;29507;51.284;5.758;2023-06-24T04:09:25;15.70;99.90
43858;DHT22;29507;51.284;5.758;2023-06-24T04:11:51;15.70;99.90
43858;DHT22;29507;51.284;5.758;2023-06-24T04:14:16;15.70;99.90
43858;DHT22;29507;51.284;5.758;2023-06-24T04:16:42;15.80;99.90
43858;DHT22;29507;51.284;5.758;2023-06-24T04:19:08;15.90;99.90
43858;DHT22;29507;51.284;5.758;2023-06-24T04:21:33;15.90;99.90
43858;DHT22;29507;51.284;5.758;2023-06-24T04:23:59;16.00;99.90
43858;DHT22;29507;51.284;5.758;2023-06-24T04:26:25;16.10;99.90
43858;DHT22;29507;51.284;5.758;2023-06-24T04:28:50;16.10;99.90
43858;DHT22;29507;51.284;5.758;2023-06-24T04:31:16;16.20;99.90
43858;DHT22;29507;51.284;5.758;2023-06-24T04:33:42;16.20;99.90
43858;DHT22;29507;51.284;5.758;2023-06-24T04:36:07;16.30;99.90
43858;DHT22;29507;51.284;5.758;2023-06-24T04:38:33;16.40;99.90
43858;DHT22;29507;51.284;5.758;2023-06-24T04:40:58;16.40;99.90
43858;DHT22;29507;51.284;5.758;2023-06-24T04:43:27;16.50;99.90
43858;DHT22;29507;51.284;5.758;2023-06-24T04:45:56;16.60;99.90
43858;DHT22;29507;51.284;5.758;2023-06-24T04:48:26;16.60;99.90
43858;DHT22;29507;51.284;5.758;2023-06-24T04:50:52;16.80;99.90
43858;DHT22;29507;51.284;5.758;2023-06-24T04:53:20;16.80;99.90
43858;DHT22;29507;51.284;5.758;2023-06-24T04:55:46;16.80;99.90
43858;DHT22;29507;51.284;5.758;2023-06-24T04:58:11;17.00;99.90
43858;DHT22;29507;51.284;5.758;2023-06-24T05:00:37;17.00;99.90
43858;DHT22;29507;51.284;5.758;2023-06-24T05:03:03;17.20;99.90
43858;DHT22;29507;51.284;5.758;2023-06-24T05:05:28;17.30;99.90
43858;DHT22;29507;51.284;5.758;2023-06-24T05:07:54;17.30;99.90
43858;DHT22;29507;51.284;5.758;2023-06-24T05:10:19;17.40;99.90
43858;DHT22;29507;51.284;5.758;2023-06-24T05:12:45;17.50;99.90
43858;DHT22;29507;51.284;5.758;2023-06-24T05:15:11;17.60;99.90
43858;DHT22;29507;51.284;5.758;2023-06-24T05:17:36;17.70;99.90
43858;DHT22;29507;51.284;5.758;2023-06-24T05:20:02;17.80;99.90
43858;DHT22;29507;51.284;5.758;2023-06-24T05:22:28;17.90;99.90
43858;DHT22;29507;51.284;5.758;2023-06-24T05:24:54;18.00;99.90
43858;DHT22;29507;51.284;5.758;2023-06-24T05:27:20;18.00;99.90
43858;DHT22;29507;51.284;5.758;2023-06-24T05:29:45;18.10;99.90
43858;DHT22;29507;51.284;5.758;2023-06-24T05:32:11;18.10;99.90
43858;DHT22;29507;51.284;5.758;2023-06-24T05:34:37;18.10;99.90
43858;DHT22;29507;51.284;5.758;2023-06-24T05:37:03;18.40;99.90
43858;DHT22;29507;51.284;5.758;2023-06-24T05:39:30;19.20;99.90
43858;DHT22;29507;51.284;5.758;2023-06-24T05:41:56;20.10;99.90
43858;DHT22;29507;51.284;5.758;2023-06-24T05:44:22;21.00;99.90
43858;DHT22;29507;51.284;5.758;2023-06-24T05:46:48;21.70;99.90
43858;DHT22;29507;51.284;5.758;2023-06-24T05:49:14;22.10;99.90
43858;DHT22;29507;51.284;5.758;2023-06-24T05:51:40;22.50;99.90
43858;DHT22;29507;51.284;5.758;2023-06-24T05:54:06;22.80;99.90
43858;DHT22;29507;51.284;5.758;2023-06-24T05:56:33;23.00;99.90
43858;DHT22;29507;51.284;5.758;2023-06-24T05:58:59;23.00;99.90
43858;DHT22;29507;51.284;5.758;2023-06-24T06:01:24;23.20;99.90
43858;DHT22;29507;51.284;5.758;2023-06-24T06:03:50;23.20;99.90
43858;DHT22;29507;51.284;5.758;2023-06-24T06:06:16;23.00;99.90
43858;DHT22;29507;51.284;5.758;2023-06-24T06:08:41;23.20;99.90
43858;DHT22;29507;51.284;5.758;2023-06-24T06:11:07;23.40;99.90
43858;DHT22;29507;51.284;5.758;2023-06-24T06:13:33;23.60;99.90
43858;DHT22;29507;51.284;5.758;2023-06-24T06:15:59;23.80;99.90
43858;DHT22;29507;51.284;5.758;2023-06-24T06:18:24;23.80;99.90
43858;DHT22;29507;51.284;5.758;2023-06-24T06:20:50;23.90;99.90
43858;DHT22;29507;51.284;5.758;2023-06-24T06:23:16;23.80;99.30
43858;DHT22;29507;51.284;5.758;2023-06-24T06:25:42;24.10;99.90
43858;DHT22;29507;51.284;5.758;2023-06-24T06:28:08;24.60;99.10
43858;DHT22;29507;51.284;5.758;2023-06-24T06:30:34;24.80;97.80
43858;DHT22;29507;51.284;5.758;2023-06-24T06:32:59;24.70;95.90
43858;DHT22;29507;51.284;5.758;2023-06-24T06:35:25;24.60;96.00
43858;DHT22;29507;51.284;5.758;2023-06-24T06:37:51;24.80;96.00
43858;DHT22;29507;51.284;5.758;2023-06-24T06:40:23;24.60;95.10
43858;DHT22;29507;51.284;5.758;2023-06-24T06:42:49;24.70;95.50
43858;DHT22;29507;51.284;5.758;2023-06-24T06:45:15;25.10;94.80
43858;DHT22;29507;51.284;5.758;2023-06-24T06:47:40;25.30;94.40
43858;DHT22;29507;51.284;5.758;2023-06-24T06:50:06;25.50;93.80
43858;DHT22;29507;51.284;5.758;2023-06-24T06:52:33;25.60;93.00
43858;DHT22;29507;51.284;5.758;2023-06-24T06:54:59;25.70;92.10
43858;DHT22;29507;51.284;5.758;2023-06-24T06:57:24;25.80;91.50
43858;DHT22;29507;51.284;5.758;2023-06-24T06:59:50;25.70;90.10
43858;DHT22;29507;51.284;5.758;2023-06-24T07:02:20;25.50;90.30
43858;DHT22;29507;51.284;5.758;2023-06-24T07:04:45;25.50;89.40
43858;DHT22;29507;51.284;5.758;2023-06-24T07:07:13;25.50;88.80
43858;DHT22;29507;51.284;5.758;2023-06-24T07:09:39;25.60;88.20
43858;DHT22;29507;51.284;5.758;2023-06-24T07:12:06;25.60;87.20
43858;DHT22;29507;51.284;5.758;2023-06-24T07:14:32;25.60;86.90
43858;DHT22;29507;51.284;5.758;2023-06-24T07:16:58;25.70;86.90
43858;DHT22;29507;51.284;5.758;2023-06-24T07:19:23;26.00;85.20
43858;DHT22;29507;51.284;5.758;2023-06-24T07:21:49;26.20;83.30
43858;DHT22;29507;51.284;5.758;2023-06-24T07:24:15;26.20;84.50
43858;DHT22;29507;51.284;5.758;2023-06-24T07:26:40;26.30;83.10
43858;DHT22;29507;51.284;5.758;2023-06-24T07:29:06;26.40;82.80
43858;DHT22;29507;51.284;5.758;2023-06-24T07:31:32;26.50;80.60
43858;DHT22;29507;51.284;5.758;2023-06-24T07:33:58;26.40;82.20
43858;DHT22;29507;51.284;5.758;2023-06-24T07:36:24;26.70;81.80
43858;DHT22;29507;51.284;5.758;2023-06-24T07:38:49;26.70;80.20
43858;DHT22;29507;51.284;5.758;2023-06-24T07:41:15;26.90;79.60
43858;DHT22;29507;51.284;5.758;2023-06-24T07:43:41;27.10;79.80
43858;DHT22;29507;51.284;5.758;2023-06-24T07:46:07;27.20;76.60
43858;DHT22;29507;51.284;5.758;2023-06-24T07:48:32;27.00;77.80
43858;DHT22;29507;51.284;5.758;2023-06-24T07:50:58;27.00;77.40
43858;DHT22;29507;51.284;5.758;2023-06-24T07:53:24;26.90;76.40
43858;DHT22;29507;51.284;5.758;2023-06-24T07:55:49;26.80;76.80
43858;DHT22;29507;51.284;5.758;2023-06-24T07:58:15;26.90;77.50
43858;DHT22;29507;51.284;5.758;2023-06-24T08:00:41;27.00;77.10
43858;DHT22;29507;51.284;5.758;2023-06-24T08:03:06;27.30;78.70
43858;DHT22;29507;51.284;5.758;2023-06-24T08:05:32;27.60;74.80
43858;DHT22;29507;51.284;5.758;2023-06-24T08:07:57;27.60;74.90
43858;DHT22;29507;51.284;5.758;2023-06-24T08:10:23;27.90;74.80
43858;DHT22;29507;51.284;5.758;2023-06-24T08:12:49;27.80;73.80
43858;DHT22;29507;51.284;5.758;2023-06-24T08:15:14;27.90;71.50
43858;DHT22;29507;51.284;5.758;2023-06-24T08:17:40;27.70;68.90
43858;DHT22;29507;51.284;5.758;2023-06-24T08:20:06;27.50;70.80
43858;DHT22;29507;51.284;5.758;2023-06-24T08:22:32;27.50;73.80
43858;DHT22;29507;51.284;5.758;2023-06-24T08:24:58;28.00;74.70
43858;DHT22;29507;51.284;5.758;2023-06-24T08:27:24;28.60;71.70
43858;DHT22;29507;51.284;5.758;2023-06-24T08:29:49;28.60;71.80
43858;DHT22;29507;51.284;5.758;2023-06-24T08:32:15;28.70;71.50
43858;DHT22;29507;51.284;5.758;2023-06-24T08:34:41;28.60;70.50
43858;DHT22;29507;51.284;5.758;2023-06-24T08:37:07;29.00;70.40
43858;DHT22;29507;51.284;5.758;2023-06-24T08:39:32;29.30;70.20
43858;DHT22;29507;51.284;5.758;2023-06-24T08:41:58;29.60;68.40
43858;DHT22;29507;51.284;5.758;2023-06-24T08:44:24;29.30;67.30
43858;DHT22;29507;51.284;5.758;2023-06-24T08:46:49;29.00;66.60
43858;DHT22;29507;51.284;5.758;2023-06-24T08:51:49;29.30;65.00
43858;DHT22;29507;51.284;5.758;2023-06-24T08:54:16;29.60;63.10
43858;DHT22;29507;51.284;5.758;2023-06-24T08:56:44;29.70;63.70
43858;DHT22;29507;51.284;5.758;2023-06-24T08:59:09;29.90;62.70
43858;DHT22;29507;51.284;5.758;2023-06-24T09:01:35;29.70;62.80
43858;DHT22;29507;51.284;5.758;2023-06-24T09:04:01;29.40;63.60
43858;DHT22;29507;51.284;5.758;2023-06-24T09:06:26;29.40;62.00
43858;DHT22;29507;51.284;5.758;2023-06-24T09:08:53;29.20;61.90
43858;DHT22;29507;51.284;5.758;2023-06-24T09:11:24;28.80;61.80
43858;DHT22;29507;51.284;5.758;2023-06-24T09:13:55;28.60;62.00
43858;DHT22;29507;51.284;5.758;2023-06-24T09:16:21;28.90;62.50
43858;DHT22;29507;51.284;5.758;2023-06-24T09:18:50;29.00;59.80
43858;DHT22;29507;51.284;5.758;2023-06-24T09:21:26;29.00;60.70
43858;DHT22;29507;51.284;5.758;2023-06-24T09:23:57;28.90;59.00
43858;DHT22;29507;51.284;5.758;2023-06-24T09:26:27;28.40;60.20
43858;DHT22;29507;51.284;5.758;2023-06-24T09:28:53;28.30;60.80
43858;DHT22;29507;51.284;5.758;2023-06-24T09:31:19;28.60;60.80
43858;DHT22;29507;51.284;5.758;2023-06-24T09:33:46;29.00;60.60
43858;DHT22;29507;51.284;5.758;2023-06-24T09:36:15;29.00;59.50
43858;DHT22;29507;51.284;5.758;2023-06-24T09:38:44;28.80;59.70
43858;DHT22;29507;51.284;5.758;2023-06-24T09:41:10;28.90;59.90
43858;DHT22;29507;51.284;5.758;2023-06-24T09:43:37;28.90;59.90
43858;DHT22;29507;51.284;5.758;2023-06-24T09:46:06;29.00;60.00
43858;DHT22;29507;51.284;5.758;2023-06-24T09:48:35;29.10;57.90
43858;DHT22;29507;51.284;5.758;2023-06-24T09:51:02;29.20;57.70
43858;DHT22;29507;51.284;5.758;2023-06-24T09:53:31;28.90;57.70
43858;DHT22;29507;51.284;5.758;2023-06-24T09:56:02;28.80;59.60
43858;DHT22;29507;51.284;5.758;2023-06-24T09:58:31;28.90;58.30
43858;DHT22;29507;51.284;5.758;2023-06-24T10:01:02;29.20;58.00
43858;DHT22;29507;51.284;5.758;2023-06-24T10:03:29;29.80;58.00
43858;DHT22;29507;51.284;5.758;2023-06-24T10:05:57;30.10;56.40
43858;DHT22;29507;51.284;5.758;2023-06-24T10:08:23;30.30;57.80
43858;DHT22;29507;51.284;5.758;2023-06-24T10:10:49;30.60;57.00
43858;DHT22;29507;51.284;5.758;2023-06-24T10:13:15;30.40;55.20
43858;DHT22;29507;51.284;5.758;2023-06-24T10:15:40;30.40;57.60
43858;DHT22;29507;51.284;5.758;2023-06-24T10:20:56;30.00;55.50
43858;DHT22;29507;51.284;5.758;2023-06-24T10:23:23;30.20;56.20
43858;DHT22;29507;51.284;5.758;2023-06-24T10:25:48;30.40;55.70
43858;DHT22;29507;51.284;5.758;2023-06-24T10:28:14;30.10;54.70
43858;DHT22;29507;51.284;5.758;2023-06-24T10:30:39;30.30;55.30
43858;DHT22;29507;51.284;5.758;2023-06-24T10:33:19;30.10;55.20
43858;DHT22;29507;51.284;5.758;2023-06-24T10:35:44;30.10;55.00
43858;DHT22;29507;51.284;5.758;2023-06-24T10:38:10;30.20;55.80
43858;DHT22;29507;51.284;5.758;2023-06-24T10:40:38;30.40;55.20
43858;DHT22;29507;51.284;5.758;2023-06-24T10:45:52;30.40;52.60
43858;DHT22;29507;51.284;5.758;2023-06-24T10:48:22;30.10;51.90
43858;DHT22;29507;51.284;5.758;2023-06-24T10:50:48;30.30;54.40
43858;DHT22;29507;51.284;5.758;2023-06-24T10:53:17;30.70;54.60
43858;DHT22;29507;51.284;5.758;2023-06-24T10:55:46;30.10;52.80
43858;DHT22;29507;51.284;5.758;2023-06-24T10:58:15;30.30;54.00
43858;DHT22;29507;51.284;5.758;2023-06-24T11:00:41;30.20;53.60
43858;DHT22;29507;51.284;5.758;2023-06-24T11:03:16;30.60;54.80
43858;DHT22;29507;51.284;5.758;2023-06-24T11:05:43;31.30;54.10
43858;DHT22;29507;51.284;5.758;2023-06-24T11:08:10;31.70;53.10
43858;DHT22;29507;51.284;5.758;2023-06-24T11:10:48;31.30;52.80
43858;DHT22;29507;51.284;5.758;2023-06-24T11:13:14;31.30;53.80
43858;DHT22;29507;51.284;5.758;2023-06-24T11:15:40;31.30;53.80
43858;DHT22;29507;51.284;5.758;2023-06-24T11:18:10;31.70;54.60
43858;DHT22;29507;51.284;5.758;2023-06-24T11:20:37;31.30;52.30
43858;DHT22;29507;51.284;5.758;2023-06-24T11:23:07;30.90;51.90
43858;DHT22;29507;51.284;5.758;2023-06-24T11:25:39;30.50;53.60
43858;DHT22;29507;51.284;5.758;2023-06-24T11:28:05;30.70;54.40
43858;DHT22;29507;51.284;5.758;2023-06-24T11:30:34;30.60;53.00
43858;DHT22;29507;51.284;5.758;2023-06-24T11:33:00;30.80;53.20
43858;DHT22;29507;51.284;5.758;2023-06-24T11:35:25;31.30;53.60
43858;DHT22;29507;51.284;5.758;2023-06-24T11:37:51;31.00;51.50
43858;DHT22;29507;51.284;5.758;2023-06-24T11:40:19;30.80;52.40
43858;DHT22;29507;51.284;5.758;2023-06-24T11:42:45;31.40;53.20
43858;DHT22;29507;51.284;5.758;2023-06-24T11:45:13;32.30;52.20
43858;DHT22;29507;51.284;5.758;2023-06-24T11:47:40;32.70;51.90
43858;DHT22;29507;51.284;5.758;2023-06-24T11:50:07;32.80;50.70
43858;DHT22;29507;51.284;5.758;2023-06-24T11:55:02;32.10;50.10
43858;DHT22;29507;51.284;5.758;2023-06-24T11:57:50;32.30;50.00
43858;DHT22;29507;51.284;5.758;2023-06-24T12:00:27;32.50;50.90
43858;DHT22;29507;51.284;5.758;2023-06-24T12:02:54;32.70;51.90
43858;DHT22;29507;51.284;5.758;2023-06-24T12:05:25;32.90;49.80
43858;DHT22;29507;51.284;5.758;2023-06-24T12:08:01;33.20;51.40
43858;DHT22;29507;51.284;5.758;2023-06-24T12:10:28;33.50;53.60
43858;DHT22;29507;51.284;5.758;2023-06-24T12:12:55;33.30;51.10
43858;DHT22;29507;51.284;5.758;2023-06-24T12:15:21;33.40;51.30
43858;DHT22;29507;51.284;5.758;2023-06-24T12:17:47;33.20;50.50
43858;DHT22;29507;51.284;5.758;2023-06-24T12:20:14;33.00;51.30
43858;DHT22;29507;51.284;5.758;2023-06-24T12:22:41;32.90;51.50
43858;DHT22;29507;51.284;5.758;2023-06-24T12:25:07;33.00;51.70
43858;DHT22;29507;51.284;5.758;2023-06-24T12:27:32;33.30;51.60
43858;DHT22;29507;51.284;5.758;2023-06-24T12:29:59;33.80;51.00
43858;DHT22;29507;51.284;5.758;2023-06-24T12:32:25;34.00;51.20
43858;DHT22;29507;51.284;5.758;2023-06-24T12:34:51;33.40;50.70
43858;DHT22;29507;51.284;5.758;2023-06-24T12:37:17;33.20;51.20
43858;DHT22;29507;51.284;5.758;2023-06-24T12:39:44;32.70;51.20
43858;DHT22;29507;51.284;5.758;2023-06-24T12:42:09;32.00;51.00
43858;DHT22;29507;51.284;5.758;2023-06-24T12:44:35;32.00;53.20
43858;DHT22;29507;51.284;5.758;2023-06-24T12:47:01;32.40;52.90
43858;DHT22;29507;51.284;5.758;2023-06-24T12:49:26;32.70;52.50
43858;DHT22;29507;51.284;5.758;2023-06-24T12:51:52;33.40;51.30
43858;DHT22;29507;51.284;5.758;2023-06-24T12:54:18;33.70;50.80
43858;DHT22;29507;51.284;5.758;2023-06-24T12:56:43;34.10;50.10
43858;DHT22;29507;51.284;5.758;2023-06-24T12:59:09;34.20;51.30
43858;DHT22;29507;51.284;5.758;2023-06-24T13:01:34;34.60;51.20
43858;DHT22;29507;51.284;5.758;2023-06-24T13:04:00;34.80;50.90
43858;DHT22;29507;51.284;5.758;2023-06-24T13:06:26;34.60;51.30
43858;DHT22;29507;51.284;5.758;2023-06-24T13:08:51;34.50;50.40
43858;DHT22;29507;51.284;5.758;2023-06-24T13:11:17;34.30;51.30
43858;DHT22;29507;51.284;5.758;2023-06-24T13:13:43;34.70;50.80
43858;DHT22;29507;51.284;5.758;2023-06-24T13:16:08;34.90;50.50
43858;DHT22;29507;51.284;5.758;2023-06-24T13:18:34;34.90;50.90
43858;DHT22;29507;51.284;5.758;2023-06-24T13:20:59;34.80;50.30
43858;DHT22;29507;51.284;5.758;2023-06-24T13:23:25;34.30;51.10
43858;DHT22;29507;51.284;5.758;2023-06-24T13:25:51;34.50;51.80
43858;DHT22;29507;51.284;5.758;2023-06-24T13:28:16;34.50;51.60
43858;DHT22;29507;51.284;5.758;2023-06-24T13:30:42;34.50;51.10
43858;DHT22;29507;51.284;5.758;2023-06-24T13:33:08;34.40;50.40
43858;DHT22;29507;51.284;5.758;2023-06-24T13:35:33;34.60;51.50
43858;DHT22;29507;51.284;5.758;2023-06-24T13:37:59;34.60;49.00
43858;DHT22;29507;51.284;5.758;2023-06-24T13:40:25;34.50;49.60
43858;DHT22;29507;51.284;5.758;2023-06-24T13:42:50;34.20;50.00
43858;DHT22;29507;51.284;5.758;2023-06-24T13:45:16;34.30;48.80
43858;DHT22;29507;51.284;5.758;2023-06-24T13:47:42;34.30;51.00
43858;DHT22;29507;51.284;5.758;2023-06-24T13:50:07;34.30;49.00
43858;DHT22;29507;51.284;5.758;2023-06-24T13:52:34;34.00;52.10
43858;DHT22;29507;51.284;5.758;2023-06-24T13:54:59;34.10;50.00
43858;DHT22;29507;51.284;5.758;2023-06-24T13:57:25;34.00;51.10
43858;DHT22;29507;51.284;5.758;2023-06-24T13:59:51;34.20;49.80
43858;DHT22;29507;51.284;5.758;2023-06-24T14:02:17;34.20;48.90
43858;DHT22;29507;51.284;5.758;2023-06-24T14:04:43;34.30;48.70
43858;DHT22;29507;51.284;5.758;2023-06-24T14:07:08;34.20;49.10
43858;DHT22;29507;51.284;5.758;2023-06-24T14:09:34;33.80;48.70
43858;DHT22;29507;51.284;5.758;2023-06-24T14:12:00;33.20;49.90
43858;DHT22;29507;51.284;5.758;2023-06-24T14:14:26;33.00;50.30
43858;DHT22;29507;51.284;5.758;2023-06-24T14:16:52;33.00;50.70
43858;DHT22;29507;51.284;5.758;2023-06-24T14:19:17;32.80;50.80
43858;DHT22;29507;51.284;5.758;2023-06-24T14:21:43;32.80;51.10
43858;DHT22;29507;51.284;5.758;2023-06-24T14:24:09;32.90;49.70
43858;DHT22;29507;51.284;5.758;2023-06-24T14:26:36;33.00;49.80
43858;DHT22;29507;51.284;5.758;2023-06-24T14:29:03;33.10;50.50
43858;DHT22;29507;51.284;5.758;2023-06-24T14:31:28;33.00;51.40
43858;DHT22;29507;51.284;5.758;2023-06-24T14:33:54;32.90;51.60
43858;DHT22;29507;51.284;5.758;2023-06-24T14:36:20;32.80;52.80
43858;DHT22;29507;51.284;5.758;2023-06-24T14:38:45;32.60;51.40
43858;DHT22;29507;51.284;5.758;2023-06-24T14:41:11;32.60;50.90
43858;DHT22;29507;51.284;5.758;2023-06-24T14:43:37;32.20;51.30
43858;DHT22;29507;51.284;5.758;2023-06-24T14:46:03;32.20;51.50
43858;DHT22;29507;51.284;5.758;2023-06-24T14:48:28;31.80;51.50
43858;DHT22;29507;51.284;5.758;2023-06-24T14:50:54;31.60;51.10
43858;DHT22;29507;51.284;5.758;2023-06-24T14:53:20;31.40;51.60
43858;DHT22;29507;51.284;5.758;2023-06-24T14:55:46;31.10;52.10
43858;DHT22;29507;51.284;5.758;2023-06-24T14:58:11;30.80;51.70
43858;DHT22;29507;51.284;5.758;2023-06-24T15:00:37;30.70;51.90
43858;DHT22;29507;51.284;5.758;2023-06-24T15:03:03;30.50;53.10
43858;DHT22;29507;51.284;5.758;2023-06-24T15:05:28;30.40;52.30
43858;DHT22;29507;51.284;5.758;2023-06-24T15:07:54;30.30;52.50
43858;DHT22;29507;51.284;5.758;2023-06-24T15:10:20;30.20;52.60
43858;DHT22;29507;51.284;5.758;2023-06-24T15:12:45;30.30;53.10
43858;DHT22;29507;51.284;5.758;2023-06-24T15:15:11;30.40;53.30
43858;DHT22;29507;51.284;5.758;2023-06-24T15:17:37;30.40;53.50
43858;DHT22;29507;51.284;5.758;2023-06-24T15:20:07;30.80;50.40
43858;DHT22;29507;51.284;5.758;2023-06-24T15:22:34;30.60;52.10
43858;DHT22;29507;51.284;5.758;2023-06-24T15:24:59;30.50;52.10
43858;DHT22;29507;51.284;5.758;2023-06-24T15:27:25;30.30;51.90
43858;DHT22;29507;51.284;5.758;2023-06-24T15:29:51;30.30;51.80
43858;DHT22;29507;51.284;5.758;2023-06-24T15:32:16;30.10;52.00
43858;DHT22;29507;51.284;5.758;2023-06-24T15:34:42;30.10;53.90
43858;DHT22;29507;51.284;5.758;2023-06-24T15:37:07;30.20;52.10
43858;DHT22;29507;51.284;5.758;2023-06-24T15:39:33;30.10;52.50
43858;DHT22;29507;51.284;5.758;2023-06-24T15:41:59;30.10;52.30
43858;DHT22;29507;51.284;5.758;2023-06-24T15:44:24;30.00;53.00
43858;DHT22;29507;51.284;5.758;2023-06-24T15:46:50;30.10;52.60